Denson Spring, Texas
Current Conditions -  °F | °C
As of 11:35 PM on Saturday 22 Nov 2014 (Local Time) from KDKR Reporting Station
Heavy Rain Heavy Rain  
Wind Chill: 64°   Ceiling: 800
Heat Index: 64°   Visibility: 2.5mi
Dew Point: 64°   Wind: 7mph
Humidity: 100%   Direction: 350°N
Pressure: 29.77"   Gusts: 16mph
Location:  31.4982°N, 95.4177°W
Report Text: KDKR 230535Z AUTO 35006G14KT 2 1/2SM +RA SCT001 BKN008 OVC011 18/18 A2977 RMK AO2 P0011
Loading
Personal Weather Stations






























Interactive Weather Map New forecast layout! Learn more

10-Day Weather Forecast

Advertisements
Track Severe Weather on mobile